sensor_id;sensor_type;location;lat;lon;timestamp;P1;durP1;ratioP1;P2;durP2;ratioP2
22665;SDS011;11499;49.486;11.104;2023-05-10T00:01:31;4.43;;;4.00;;
22665;SDS011;11499;49.486;11.104;2023-05-10T00:03:56;4.03;;;3.73;;
22665;SDS011;11499;49.486;11.104;2023-05-10T00:06:22;6.07;;;3.97;;
22665;SDS011;11499;49.486;11.104;2023-05-10T00:08:47;4.47;;;4.07;;
22665;SDS011;11499;49.486;11.104;2023-05-10T00:14:14;5.50;;;4.20;;
22665;SDS011;11499;49.486;11.104;2023-05-10T00:16:40;5.20;;;4.70;;
22665;SDS011;11499;49.486;11.104;2023-05-10T00:19:06;4.90;;;4.50;;
22665;SDS011;11499;49.486;11.104;2023-05-10T00:21:31;5.17;;;4.70;;
22665;SDS011;11499;49.486;11.104;2023-05-10T00:23:58;7.37;;;4.90;;
22665;SDS011;11499;49.486;11.104;2023-05-10T00:26:24;5.73;;;4.73;;
22665;SDS011;11499;49.486;11.104;2023-05-10T00:28:49;5.83;;;5.33;;
22665;SDS011;11499;49.486;11.104;2023-05-10T00:31:15;6.00;;;5.10;;
22665;SDS011;11499;49.486;11.104;2023-05-10T00:33:41;6.47;;;4.87;;
22665;SDS011;11499;49.486;11.104;2023-05-10T00:36:06;6.90;;;5.07;;
22665;SDS011;11499;49.486;11.104;2023-05-10T00:41:21;5.60;;;5.10;;
22665;SDS011;11499;49.486;11.104;2023-05-10T00:43:47;5.90;;;5.30;;
22665;SDS011;11499;49.486;11.104;2023-05-10T00:46:14;6.20;;;4.97;;
22665;SDS011;11499;49.486;11.104;2023-05-10T00:48:40;5.37;;;4.97;;
22665;SDS011;11499;49.486;11.104;2023-05-10T00:51:05;5.53;;;4.97;;
22665;SDS011;11499;49.486;11.104;2023-05-10T00:53:31;5.17;;;4.67;;
22665;SDS011;11499;49.486;11.104;2023-05-10T00:55:57;6.97;;;5.50;;
22665;SDS011;11499;49.486;11.104;2023-05-10T00:58:24;9.13;;;6.10;;
22665;SDS011;11499;49.486;11.104;2023-05-10T01:00:53;6.90;;;6.20;;
22665;SDS011;11499;49.486;11.104;2023-05-10T01:03:21;6.67;;;6.07;;
22665;SDS011;11499;49.486;11.104;2023-05-10T01:08:27;6.73;;;6.03;;
22665;SDS011;11499;49.486;11.104;2023-05-10T01:10:53;7.83;;;6.27;;
22665;SDS011;11499;49.486;11.104;2023-05-10T01:13:41;8.30;;;6.23;;
22665;SDS011;11499;49.486;11.104;2023-05-10T01:16:07;7.40;;;6.70;;
22665;SDS011;11499;49.486;11.104;2023-05-10T01:18:33;8.03;;;6.93;;
22665;SDS011;11499;49.486;11.104;2023-05-10T01:30:07;7.20;;;6.50;;
22665;SDS011;11499;49.486;11.104;2023-05-10T01:41:03;7.77;;;7.03;;
22665;SDS011;11499;49.486;11.104;2023-05-10T01:43:48;8.77;;;6.70;;
22665;SDS011;11499;49.486;11.104;2023-05-10T01:46:32;8.53;;;6.80;;
22665;SDS011;11499;49.486;11.104;2023-05-10T01:49:01;7.37;;;6.57;;
22665;SDS011;11499;49.486;11.104;2023-05-10T01:51:31;7.87;;;7.03;;
22665;SDS011;11499;49.486;11.104;2023-05-10T01:54:04;7.63;;;6.93;;
22665;SDS011;11499;49.486;11.104;2023-05-10T01:56:31;7.73;;;7.03;;
22665;SDS011;11499;49.486;11.104;2023-05-10T01:58:59;8.60;;;7.80;;
22665;SDS011;11499;49.486;11.104;2023-05-10T02:03:42;9.90;;;8.27;;
22665;SDS011;11499;49.486;11.104;2023-05-10T02:06:09;8.47;;;7.63;;
22665;SDS011;11499;49.486;11.104;2023-05-10T02:08:38;8.23;;;7.50;;
22665;SDS011;11499;49.486;11.104;2023-05-10T02:11:04;9.23;;;8.33;;
22665;SDS011;11499;49.486;11.104;2023-05-10T02:13:31;8.93;;;8.10;;
22665;SDS011;11499;49.486;11.104;2023-05-10T02:15:59;8.60;;;7.80;;
22665;SDS011;11499;49.486;11.104;2023-05-10T02:18:26;9.97;;;8.10;;
22665;SDS011;11499;49.486;11.104;2023-05-10T02:20:52;9.57;;;8.57;;
22665;SDS011;11499;49.486;11.104;2023-05-10T02:23:20;9.00;;;8.20;;
22665;SDS011;11499;49.486;11.104;2023-05-10T02:25:47;9.00;;;8.13;;
22665;SDS011;11499;49.486;11.104;2023-05-10T02:30:54;9.37;;;8.57;;
22665;SDS011;11499;49.486;11.104;2023-05-10T02:33:21;9.17;;;8.37;;
22665;SDS011;11499;49.486;11.104;2023-05-10T02:35:47;9.43;;;8.63;;
22665;SDS011;11499;49.486;11.104;2023-05-10T02:38:14;8.70;;;7.90;;
22665;SDS011;11499;49.486;11.104;2023-05-10T02:40:41;9.73;;;8.30;;
22665;SDS011;11499;49.486;11.104;2023-05-10T02:43:07;9.93;;;8.37;;
22665;SDS011;11499;49.486;11.104;2023-05-10T02:45:36;8.93;;;8.10;;
22665;SDS011;11499;49.486;11.104;2023-05-10T02:48:03;9.47;;;8.53;;
22665;SDS011;11499;49.486;11.104;2023-05-10T02:50:29;8.83;;;7.93;;
22665;SDS011;11499;49.486;11.104;2023-05-10T02:52:59;8.80;;;7.97;;
22665;SDS011;11499;49.486;11.104;2023-05-10T02:58:29;4.37;;;3.57;;
22665;SDS011;11499;49.486;11.104;2023-05-10T03:00:55;3.73;;;3.43;;
22665;SDS011;11499;49.486;11.104;2023-05-10T03:03:20;3.50;;;3.20;;
22665;SDS011;11499;49.486;11.104;2023-05-10T03:05:46;3.10;;;2.80;;
22665;SDS011;11499;49.486;11.104;2023-05-10T03:08:11;3.13;;;2.83;;
22665;SDS011;11499;49.486;11.104;2023-05-10T03:11:01;3.30;;;3.00;;
22665;SDS011;11499;49.486;11.104;2023-05-10T03:13:44;2.40;;;2.20;;
22665;SDS011;11499;49.486;11.104;2023-05-10T03:16:35;2.10;;;1.90;;
22665;SDS011;11499;49.486;11.104;2023-05-10T03:19:17;2.20;;;2.00;;
22665;SDS011;11499;49.486;11.104;2023-05-10T03:21:52;1.70;;;1.60;;
22665;SDS011;11499;49.486;11.104;2023-05-10T03:25:52;1.73;;;1.63;;
22665;SDS011;11499;49.486;11.104;2023-05-10T03:28:18;3.00;;;1.83;;
22665;SDS011;11499;49.486;11.104;2023-05-10T03:30:45;2.10;;;1.90;;
22665;SDS011;11499;49.486;11.104;2023-05-10T03:33:11;1.87;;;1.77;;
22665;SDS011;11499;49.486;11.104;2023-05-10T03:35:38;2.10;;;1.90;;
22665;SDS011;11499;49.486;11.104;2023-05-10T03:38:03;2.43;;;1.90;;
22665;SDS011;11499;49.486;11.104;2023-05-10T03:40:29;2.00;;;1.80;;
22665;SDS011;11499;49.486;11.104;2023-05-10T03:43:00;1.80;;;1.70;;
22665;SDS011;11499;49.486;11.104;2023-05-10T03:45:25;1.67;;;1.57;;
22665;SDS011;11499;49.486;11.104;2023-05-10T03:47:51;1.60;;;1.30;;
22665;SDS011;11499;49.486;11.104;2023-05-10T03:52:35;1.70;;;1.40;;
22665;SDS011;11499;49.486;11.104;2023-05-10T03:55:00;1.40;;;1.30;;
22665;SDS011;11499;49.486;11.104;2023-05-10T03:57:28;1.30;;;1.20;;
22665;SDS011;11499;49.486;11.104;2023-05-10T03:59:54;1.20;;;1.10;;
22665;SDS011;11499;49.486;11.104;2023-05-10T04:02:19;1.50;;;1.10;;
22665;SDS011;11499;49.486;11.104;2023-05-10T04:04:45;3.60;;;1.53;;
22665;SDS011;11499;49.486;11.104;2023-05-10T04:07:10;1.33;;;1.23;;
22665;SDS011;11499;49.486;11.104;2023-05-10T04:09:36;1.17;;;1.07;;
22665;SDS011;11499;49.486;11.104;2023-05-10T04:12:01;1.10;;;1.00;;
22665;SDS011;11499;49.486;11.104;2023-05-10T04:14:27;1.20;;;1.10;;
22665;SDS011;11499;49.486;11.104;2023-05-10T04:19:21;1.17;;;1.00;;
22665;SDS011;11499;49.486;11.104;2023-05-10T04:21:46;0.80;;;0.80;;
22665;SDS011;11499;49.486;11.104;2023-05-10T04:24:12;1.13;;;1.03;;
22665;SDS011;11499;49.486;11.104;2023-05-10T04:26:37;1.10;;;1.00;;
22665;SDS011;11499;49.486;11.104;2023-05-10T04:29:02;2.57;;;1.10;;
22665;SDS011;11499;49.486;11.104;2023-05-10T04:31:28;1.03;;;0.90;;
22665;SDS011;11499;49.486;11.104;2023-05-10T04:33:53;1.13;;;1.00;;
22665;SDS011;11499;49.486;11.104;2023-05-10T04:36:19;1.70;;;0.83;;
22665;SDS011;11499;49.486;11.104;2023-05-10T04:38:45;1.60;;;1.20;;
22665;SDS011;11499;49.486;11.104;2023-05-10T04:41:10;1.10;;;1.00;;
22665;SDS011;11499;49.486;11.104;2023-05-10T04:46:38;1.13;;;1.03;;
22665;SDS011;11499;49.486;11.104;2023-05-10T04:49:03;1.93;;;1.10;;
22665;SDS011;11499;49.486;11.104;2023-05-10T04:51:29;1.07;;;0.97;;
22665;SDS011;11499;49.486;11.104;2023-05-10T04:53:55;1.30;;;1.20;;
22665;SDS011;11499;49.486;11.104;2023-05-10T04:56:20;1.20;;;1.10;;
22665;SDS011;11499;49.486;11.104;2023-05-10T04:58:46;1.40;;;1.20;;
22665;SDS011;11499;49.486;11.104;2023-05-10T05:01:12;1.10;;;1.00;;
22665;SDS011;11499;49.486;11.104;2023-05-10T05:03:38;1.53;;;1.30;;
22665;SDS011;11499;49.486;11.104;2023-05-10T05:06:03;1.30;;;1.20;;
22665;SDS011;11499;49.486;11.104;2023-05-10T05:08:30;1.17;;;1.07;;
22665;SDS011;11499;49.486;11.104;2023-05-10T05:13:30;1.33;;;1.20;;
22665;SDS011;11499;49.486;11.104;2023-05-10T05:15:56;1.63;;;1.00;;
22665;SDS011;11499;49.486;11.104;2023-05-10T05:18:21;0.90;;;0.90;;
22665;SDS011;11499;49.486;11.104;2023-05-10T05:20:47;1.20;;;1.10;;
22665;SDS011;11499;49.486;11.104;2023-05-10T05:23:12;2.03;;;1.07;;
22665;SDS011;11499;49.486;11.104;2023-05-10T05:25:38;1.40;;;1.00;;
22665;SDS011;11499;49.486;11.104;2023-05-10T05:28:03;1.87;;;1.10;;
22665;SDS011;11499;49.486;11.104;2023-05-10T05:30:29;6.73;;;1.40;;
22665;SDS011;11499;49.486;11.104;2023-05-10T05:32:54;1.13;;;1.03;;
22665;SDS011;11499;49.486;11.104;2023-05-10T05:35:20;1.20;;;1.00;;
22665;SDS011;11499;49.486;11.104;2023-05-10T05:40:54;1.30;;;1.00;;
22665;SDS011;11499;49.486;11.104;2023-05-10T05:43:20;0.93;;;0.83;;
22665;SDS011;11499;49.486;11.104;2023-05-10T05:45:45;1.17;;;1.07;;
22665;SDS011;11499;49.486;11.104;2023-05-10T05:48:11;1.47;;;1.20;;
22665;SDS011;11499;49.486;11.104;2023-05-10T05:50:36;1.37;;;1.10;;
22665;SDS011;11499;49.486;11.104;2023-05-10T05:53:02;1.50;;;1.20;;
22665;SDS011;11499;49.486;11.104;2023-05-10T05:55:27;1.50;;;1.00;;
22665;SDS011;11499;49.486;11.104;2023-05-10T05:57:54;2.13;;;1.47;;
22665;SDS011;11499;49.486;11.104;2023-05-10T06:00:20;1.30;;;1.20;;
22665;SDS011;11499;49.486;11.104;2023-05-10T06:02:46;1.73;;;1.33;;
22665;SDS011;11499;49.486;11.104;2023-05-10T06:08:22;1.47;;;1.37;;
22665;SDS011;11499;49.486;11.104;2023-05-10T06:10:48;3.20;;;1.33;;
22665;SDS011;11499;49.486;11.104;2023-05-10T06:13:13;1.40;;;1.30;;
22665;SDS011;11499;49.486;11.104;2023-05-10T06:15:39;1.30;;;1.20;;
22665;SDS011;11499;49.486;11.104;2023-05-10T06:18:04;3.23;;;1.70;;
22665;SDS011;11499;49.486;11.104;2023-05-10T06:20:31;1.67;;;1.53;;
22665;SDS011;11499;49.486;11.104;2023-05-10T06:22:56;1.47;;;1.37;;
22665;SDS011;11499;49.486;11.104;2023-05-10T06:25:23;1.43;;;1.33;;
22665;SDS011;11499;49.486;11.104;2023-05-10T06:27:48;1.87;;;1.30;;
22665;SDS011;11499;49.486;11.104;2023-05-10T06:30:14;1.60;;;1.37;;
22665;SDS011;11499;49.486;11.104;2023-05-10T06:35:39;1.70;;;1.40;;
22665;SDS011;11499;49.486;11.104;2023-05-10T06:38:05;1.30;;;1.20;;
22665;SDS011;11499;49.486;11.104;2023-05-10T06:40:30;2.00;;;1.53;;
22665;SDS011;11499;49.486;11.104;2023-05-10T06:42:56;1.40;;;1.30;;
22665;SDS011;11499;49.486;11.104;2023-05-10T06:45:21;1.87;;;1.40;;
22665;SDS011;11499;49.486;11.104;2023-05-10T06:47:47;1.47;;;1.33;;
22665;SDS011;11499;49.486;11.104;2023-05-10T06:50:12;5.27;;;1.50;;
22665;SDS011;11499;49.486;11.104;2023-05-10T06:52:38;1.50;;;1.40;;
22665;SDS011;11499;49.486;11.104;2023-05-10T06:55:04;1.67;;;1.30;;
22665;SDS011;11499;49.486;11.104;2023-05-10T06:57:30;1.63;;;1.30;;
22665;SDS011;11499;49.486;11.104;2023-05-10T07:03:25;1.30;;;1.20;;
22665;SDS011;11499;49.486;11.104;2023-05-10T07:05:50;1.80;;;1.30;;
22665;SDS011;11499;49.486;11.104;2023-05-10T07:08:16;1.30;;;1.20;;
22665;SDS011;11499;49.486;11.104;2023-05-10T07:10:41;1.37;;;1.27;;
22665;SDS011;11499;49.486;11.104;2023-05-10T07:13:07;2.50;;;1.20;;
22665;SDS011;11499;49.486;11.104;2023-05-10T07:15:33;2.03;;;1.30;;
22665;SDS011;11499;49.486;11.104;2023-05-10T07:17:58;2.00;;;1.30;;
22665;SDS011;11499;49.486;11.104;2023-05-10T07:20:24;1.27;;;1.10;;
22665;SDS011;11499;49.486;11.104;2023-05-10T07:22:50;1.10;;;1.00;;
22665;SDS011;11499;49.486;11.104;2023-05-10T07:28:04;1.40;;;1.30;;
22665;SDS011;11499;49.486;11.104;2023-05-10T07:30:30;1.97;;;1.03;;
22665;SDS011;11499;49.486;11.104;2023-05-10T07:32:56;1.20;;;1.00;;
22665;SDS011;11499;49.486;11.104;2023-05-10T07:35:21;3.73;;;1.30;;
22665;SDS011;11499;49.486;11.104;2023-05-10T07:37:47;3.80;;;1.00;;
22665;SDS011;11499;49.486;11.104;2023-05-10T07:40:12;1.80;;;1.00;;
22665;SDS011;11499;49.486;11.104;2023-05-10T07:42:38;1.10;;;1.00;;
22665;SDS011;11499;49.486;11.104;2023-05-10T07:45:03;2.13;;;1.20;;
22665;SDS011;11499;49.486;11.104;2023-05-10T07:47:29;1.80;;;0.90;;
22665;SDS011;11499;49.486;11.104;2023-05-10T07:49:55;1.20;;;1.10;;
22665;SDS011;11499;49.486;11.104;2023-05-10T07:52:20;1.40;;;1.30;;
22665;SDS011;11499;49.486;11.104;2023-05-10T07:57:06;1.33;;;1.10;;
22665;SDS011;11499;49.486;11.104;2023-05-10T07:59:32;1.70;;;1.40;;
22665;SDS011;11499;49.486;11.104;2023-05-10T08:01:58;1.30;;;1.20;;
22665;SDS011;11499;49.486;11.104;2023-05-10T08:04:23;1.80;;;1.30;;
22665;SDS011;11499;49.486;11.104;2023-05-10T08:06:49;1.53;;;1.17;;
22665;SDS011;11499;49.486;11.104;2023-05-10T08:09:14;1.50;;;1.40;;
22665;SDS011;11499;49.486;11.104;2023-05-10T08:11:41;2.03;;;1.10;;
22665;SDS011;11499;49.486;11.104;2023-05-10T08:14:06;1.30;;;1.20;;
22665;SDS011;11499;49.486;11.104;2023-05-10T08:16:32;3.27;;;1.30;;
22665;SDS011;11499;49.486;11.104;2023-05-10T08:18:57;1.67;;;1.30;;
22665;SDS011;11499;49.486;11.104;2023-05-10T08:24:04;2.20;;;1.37;;
22665;SDS011;11499;49.486;11.104;2023-05-10T08:26:30;2.13;;;1.20;;
22665;SDS011;11499;49.486;11.104;2023-05-10T08:28:57;2.37;;;1.30;;
22665;SDS011;11499;49.486;11.104;2023-05-10T08:31:22;3.43;;;1.47;;
22665;SDS011;11499;49.486;11.104;2023-05-10T08:33:48;2.53;;;1.50;;
22665;SDS011;11499;49.486;11.104;2023-05-10T08:36:13;1.37;;;1.27;;
22665;SDS011;11499;49.486;11.104;2023-05-10T08:38:44;1.57;;;1.20;;
22665;SDS011;11499;49.486;11.104;2023-05-10T08:41:09;1.40;;;1.30;;
22665;SDS011;11499;49.486;11.104;2023-05-10T08:43:36;2.53;;;1.30;;
22665;SDS011;11499;49.486;11.104;2023-05-10T08:46:02;2.20;;;1.30;;
22665;SDS011;11499;49.486;11.104;2023-05-10T08:48:31;2.33;;;1.30;;
22665;SDS011;11499;49.486;11.104;2023-05-10T08:51:02;1.73;;;1.30;;
22665;SDS011;11499;49.486;11.104;2023-05-10T08:56:10;2.47;;;1.30;;
22665;SDS011;11499;49.486;11.104;2023-05-10T08:58:36;1.50;;;1.40;;
22665;SDS011;11499;49.486;11.104;2023-05-10T09:01:02;2.08;;;1.27;;
22665;SDS011;11499;49.486;11.104;2023-05-10T09:03:28;1.48;;;1.38;;
22665;SDS011;11499;49.486;11.104;2023-05-10T09:05:54;2.67;;;1.50;;
22665;SDS011;11499;49.486;11.104;2023-05-10T09:08:21;1.67;;;1.40;;
22665;SDS011;11499;49.486;11.104;2023-05-10T09:10:50;1.77;;;1.48;;
22665;SDS011;11499;49.486;11.104;2023-05-10T09:13:16;1.40;;;1.30;;
22665;SDS011;11499;49.486;11.104;2023-05-10T09:15:43;2.03;;;1.80;;
22665;SDS011;11499;49.486;11.104;2023-05-10T09:18:09;2.80;;;1.48;;
22665;SDS011;11499;49.486;11.104;2023-05-10T09:23:09;3.55;;;1.70;;
22665;SDS011;11499;49.486;11.104;2023-05-10T09:25:35;4.57;;;1.67;;
22665;SDS011;11499;49.486;11.104;2023-05-10T09:28:02;3.57;;;1.73;;
22665;SDS011;11499;49.486;11.104;2023-05-10T09:30:31;2.60;;;1.83;;
22665;SDS011;11499;49.486;11.104;2023-05-10T09:32:57;1.90;;;1.70;;
22665;SDS011;11499;49.486;11.104;2023-05-10T09:35:27;2.77;;;1.93;;
22665;SDS011;11499;49.486;11.104;2023-05-10T09:37:55;3.10;;;2.30;;
22665;SDS011;11499;49.486;11.104;2023-05-10T09:40:25;3.80;;;2.80;;
22665;SDS011;11499;49.486;11.104;2023-05-10T09:43:08;3.47;;;2.90;;
22665;SDS011;11499;49.486;11.104;2023-05-10T09:45:35;3.30;;;3.00;;
22665;SDS011;11499;49.486;11.104;2023-05-10T09:50:24;2.83;;;2.60;;
22665;SDS011;11499;49.486;11.104;2023-05-10T09:52:54;2.83;;;2.57;;
22665;SDS011;11499;49.486;11.104;2023-05-10T09:55:25;2.70;;;2.50;;
22665;SDS011;11499;49.486;11.104;2023-05-10T09:58:02;4.87;;;2.80;;
22665;SDS011;11499;49.486;11.104;2023-05-10T10:00:34;2.87;;;2.50;;
22665;SDS011;11499;49.486;11.104;2023-05-10T10:03:14;3.10;;;2.57;;
22665;SDS011;11499;49.486;11.104;2023-05-10T10:05:41;4.53;;;2.50;;
22665;SDS011;11499;49.486;11.104;2023-05-10T10:08:08;2.63;;;2.37;;
22665;SDS011;11499;49.486;11.104;2023-05-10T10:10:34;2.57;;;2.37;;
22665;SDS011;11499;49.486;11.104;2023-05-10T10:12:59;2.53;;;2.10;;
22665;SDS011;11499;49.486;11.104;2023-05-10T10:17:54;4.20;;;2.22;;
22665;SDS011;11499;49.486;11.104;2023-05-10T10:20:20;3.22;;;1.70;;
22665;SDS011;11499;49.486;11.104;2023-05-10T10:22:47;2.45;;;1.55;;
22665;SDS011;11499;49.486;11.104;2023-05-10T10:25:14;3.97;;;1.50;;
22665;SDS011;11499;49.486;11.104;2023-05-10T10:35:38;1.60;;;1.23;;
22665;SDS011;11499;49.486;11.104;2023-05-10T10:41:02;3.08;;;1.38;;
22665;SDS011;11499;49.486;11.104;2023-05-10T10:43:48;2.08;;;1.20;;
22665;SDS011;11499;49.486;11.104;2023-05-10T10:46:14;1.45;;;1.35;;
22665;SDS011;11499;49.486;11.104;2023-05-10T10:48:46;3.53;;;1.50;;
22665;SDS011;11499;49.486;11.104;2023-05-10T10:51:13;2.67;;;1.50;;
22665;SDS011;11499;49.486;11.104;2023-05-10T10:53:39;1.48;;;1.30;;
22665;SDS011;11499;49.486;11.104;2023-05-10T10:56:15;1.45;;;1.35;;
22665;SDS011;11499;49.486;11.104;2023-05-10T10:58:40;2.15;;;1.42;;
22665;SDS011;11499;49.486;11.104;2023-05-10T11:01:10;2.63;;;1.30;;
22665;SDS011;11499;49.486;11.104;2023-05-10T11:03:37;1.65;;;1.30;;
22665;SDS011;11499;49.486;11.104;2023-05-10T11:06:02;1.92;;;1.33;;
22665;SDS011;11499;49.486;11.104;2023-05-10T11:08:29;3.50;;;1.30;;
22665;SDS011;11499;49.486;11.104;2023-05-10T11:12:24;1.92;;;1.38;;
22665;SDS011;11499;49.486;11.104;2023-05-10T11:14:50;3.38;;;1.55;;
22665;SDS011;11499;49.486;11.104;2023-05-10T11:17:22;1.58;;;1.40;;
22665;SDS011;11499;49.486;11.104;2023-05-10T11:22:52;2.00;;;1.60;;
22665;SDS011;11499;49.486;11.104;2023-05-10T11:25:19;1.60;;;1.50;;
22665;SDS011;11499;49.486;11.104;2023-05-10T11:27:46;1.80;;;1.70;;
22665;SDS011;11499;49.486;11.104;2023-05-10T11:30:13;2.30;;;1.73;;
22665;SDS011;11499;49.486;11.104;2023-05-10T11:32:40;3.43;;;1.67;;
22665;SDS011;11499;49.486;11.104;2023-05-10T11:35:09;2.60;;;1.80;;
22665;SDS011;11499;49.486;11.104;2023-05-10T11:40:18;2.50;;;1.70;;
22665;SDS011;11499;49.486;11.104;2023-05-10T11:42:46;2.13;;;1.73;;
22665;SDS011;11499;49.486;11.104;2023-05-10T11:45:11;1.65;;;1.45;;
22665;SDS011;11499;49.486;11.104;2023-05-10T11:47:37;1.55;;;1.40;;
22665;SDS011;11499;49.486;11.104;2023-05-10T11:50:04;2.93;;;1.70;;
22665;SDS011;11499;49.486;11.104;2023-05-10T11:52:35;3.03;;;1.23;;
22665;SDS011;11499;49.486;11.104;2023-05-10T11:55:02;3.30;;;1.40;;
22665;SDS011;11499;49.486;11.104;2023-05-10T11:57:27;1.33;;;1.17;;
22665;SDS011;11499;49.486;11.104;2023-05-10T11:59:53;1.25;;;1.15;;
22665;SDS011;11499;49.486;11.104;2023-05-10T12:02:20;2.67;;;1.50;;
22665;SDS011;11499;49.486;11.104;2023-05-10T12:08:10;2.22;;;1.60;;
22665;SDS011;11499;49.486;11.104;2023-05-10T12:10:39;2.05;;;1.40;;
22665;SDS011;11499;49.486;11.104;2023-05-10T12:13:05;2.05;;;1.40;;
22665;SDS011;11499;49.486;11.104;2023-05-10T12:15:35;2.38;;;1.58;;
22665;SDS011;11499;49.486;11.104;2023-05-10T12:18:00;1.50;;;1.40;;
22665;SDS011;11499;49.486;11.104;2023-05-10T12:20:27;2.78;;;1.70;;
22665;SDS011;11499;49.486;11.104;2023-05-10T12:22:57;2.35;;;1.55;;
22665;SDS011;11499;49.486;11.104;2023-05-10T12:25:31;2.42;;;1.75;;
22665;SDS011;11499;49.486;11.104;2023-05-10T12:30:38;1.50;;;1.40;;
22665;SDS011;11499;49.486;11.104;2023-05-10T12:33:08;4.80;;;2.05;;
22665;SDS011;11499;49.486;11.104;2023-05-10T12:35:48;2.15;;;1.50;;
22665;SDS011;11499;49.486;11.104;2023-05-10T12:38:28;2.35;;;1.50;;
22665;SDS011;11499;49.486;11.104;2023-05-10T12:41:04;3.20;;;1.40;;
22665;SDS011;11499;49.486;11.104;2023-05-10T12:43:31;1.58;;;1.35;;
22665;SDS011;11499;49.486;11.104;2023-05-10T12:45:57;1.20;;;1.10;;
22665;SDS011;11499;49.486;11.104;2023-05-10T12:48:23;1.55;;;1.05;;
22665;SDS011;11499;49.486;11.104;2023-05-10T12:50:49;3.20;;;1.30;;
22665;SDS011;11499;49.486;11.104;2023-05-10T12:53:15;2.55;;;1.33;;
22665;SDS011;11499;49.486;11.104;2023-05-10T12:58:05;1.73;;;1.30;;
22665;SDS011;11499;49.486;11.104;2023-05-10T13:00:31;1.23;;;1.13;;
22665;SDS011;11499;49.486;11.104;2023-05-10T13:02:56;1.92;;;1.40;;
22665;SDS011;11499;49.486;11.104;2023-05-10T13:05:22;1.97;;;1.37;;
22665;SDS011;11499;49.486;11.104;2023-05-10T13:07:47;1.75;;;1.25;;
22665;SDS011;11499;49.486;11.104;2023-05-10T13:10:13;1.92;;;1.20;;
22665;SDS011;11499;49.486;11.104;2023-05-10T13:12:38;2.88;;;1.40;;
22665;SDS011;11499;49.486;11.104;2023-05-10T13:15:04;1.42;;;1.33;;
22665;SDS011;11499;49.486;11.104;2023-05-10T13:17:31;2.05;;;1.33;;
22665;SDS011;11499;49.486;11.104;2023-05-10T13:19:57;3.97;;;1.30;;
22665;SDS011;11499;49.486;11.104;2023-05-10T13:25:07;2.83;;;1.27;;
22665;SDS011;11499;49.486;11.104;2023-05-10T13:27:33;1.73;;;0.70;;
22665;SDS011;11499;49.486;11.104;2023-05-10T13:29:59;0.98;;;0.80;;
22665;SDS011;11499;49.486;11.104;2023-05-10T13:32:25;1.20;;;1.10;;
22665;SDS011;11499;49.486;11.104;2023-05-10T13:34:50;2.20;;;1.00;;
22665;SDS011;11499;49.486;11.104;2023-05-10T13:37:16;1.57;;;1.37;;
22665;SDS011;11499;49.486;11.104;2023-05-10T13:39:42;1.33;;;0.97;;
22665;SDS011;11499;49.486;11.104;2023-05-10T13:42:07;1.20;;;1.10;;
22665;SDS011;11499;49.486;11.104;2023-05-10T13:44:33;2.40;;;1.43;;
22665;SDS011;11499;49.486;11.104;2023-05-10T13:47:54;3.00;;;1.30;;
22665;SDS011;11499;49.486;11.104;2023-05-10T13:50:19;2.87;;;1.33;;
22665;SDS011;11499;49.486;11.104;2023-05-10T13:52:45;1.92;;;1.30;;
22665;SDS011;11499;49.486;11.104;2023-05-10T13:55:10;1.90;;;1.38;;
22665;SDS011;11499;49.486;11.104;2023-05-10T13:57:38;2.60;;;1.42;;
22665;SDS011;11499;49.486;11.104;2023-05-10T14:00:03;3.33;;;2.30;;
22665;SDS011;11499;49.486;11.104;2023-05-10T14:02:29;4.22;;;1.60;;
22665;SDS011;11499;49.486;11.104;2023-05-10T14:04:55;1.90;;;1.40;;
22665;SDS011;11499;49.486;11.104;2023-05-10T14:07:21;2.28;;;1.50;;
22665;SDS011;11499;49.486;11.104;2023-05-10T14:09:46;3.85;;;1.60;;
22665;SDS011;11499;49.486;11.104;2023-05-10T14:14:25;1.73;;;1.40;;
22665;SDS011;11499;49.486;11.104;2023-05-10T14:16:50;1.40;;;1.15;;
22665;SDS011;11499;49.486;11.104;2023-05-10T14:19:16;2.10;;;1.30;;
22665;SDS011;11499;49.486;11.104;2023-05-10T14:21:42;2.75;;;1.60;;
22665;SDS011;11499;49.486;11.104;2023-05-10T14:24:08;2.00;;;1.40;;
22665;SDS011;11499;49.486;11.104;2023-05-10T14:26:33;1.55;;;1.25;;
22665;SDS011;11499;49.486;11.104;2023-05-10T14:28:59;2.25;;;1.40;;
22665;SDS011;11499;49.486;11.104;2023-05-10T14:31:25;3.05;;;1.50;;
22665;SDS011;11499;49.486;11.104;2023-05-10T14:36:30;2.85;;;1.50;;
22665;SDS011;11499;49.486;11.104;2023-05-10T14:38:56;1.63;;;1.23;;
22665;SDS011;11499;49.486;11.104;2023-05-10T14:41:21;1.60;;;1.27;;
22665;SDS011;11499;49.486;11.104;2023-05-10T14:43:47;1.77;;;1.40;;
22665;SDS011;11499;49.486;11.104;2023-05-10T14:46:13;1.50;;;1.30;;
22665;SDS011;11499;49.486;11.104;2023-05-10T14:48:38;2.67;;;1.30;;
22665;SDS011;11499;49.486;11.104;2023-05-10T14:51:04;1.98;;;1.20;;
22665;SDS011;11499;49.486;11.104;2023-05-10T14:53:29;1.90;;;1.20;;
22665;SDS011;11499;49.486;11.104;2023-05-10T14:55:55;1.60;;;1.23;;
22665;SDS011;11499;49.486;11.104;2023-05-10T14:58:21;1.20;;;1.10;;
22665;SDS011;11499;49.486;11.104;2023-05-10T15:02:31;1.25;;;1.00;;
22665;SDS011;11499;49.486;11.104;2023-05-10T15:04:56;1.33;;;1.00;;
22665;SDS011;11499;49.486;11.104;2023-05-10T15:07:22;1.50;;;1.40;;
22665;SDS011;11499;49.486;11.104;2023-05-10T15:09:48;1.63;;;1.40;;
22665;SDS011;11499;49.486;11.104;2023-05-10T15:12:15;1.67;;;1.58;;
22665;SDS011;11499;49.486;11.104;2023-05-10T15:14:40;1.77;;;1.42;;
22665;SDS011;11499;49.486;11.104;2023-05-10T15:17:06;1.63;;;1.17;;
22665;SDS011;11499;49.486;11.104;2023-05-10T15:19:32;1.20;;;1.10;;
22665;SDS011;11499;49.486;11.104;2023-05-10T15:21:58;1.30;;;1.10;;
22665;SDS011;11499;49.486;11.104;2023-05-10T15:24:23;1.40;;;1.00;;
22665;SDS011;11499;49.486;11.104;2023-05-10T15:29:37;2.53;;;1.10;;
22665;SDS011;11499;49.486;11.104;2023-05-10T15:32:03;0.73;;;0.60;;
22665;SDS011;11499;49.486;11.104;2023-05-10T15:34:29;1.03;;;0.93;;
22665;SDS011;11499;49.486;11.104;2023-05-10T15:36:54;1.10;;;0.80;;
22665;SDS011;11499;49.486;11.104;2023-05-10T15:39:20;2.00;;;1.00;;
22665;SDS011;11499;49.486;11.104;2023-05-10T15:41:45;1.27;;;1.10;;
22665;SDS011;11499;49.486;11.104;2023-05-10T15:44:12;1.13;;;1.03;;
22665;SDS011;11499;49.486;11.104;2023-05-10T15:46:38;2.10;;;1.27;;
22665;SDS011;11499;49.486;11.104;2023-05-10T15:49:03;1.27;;;1.17;;
22665;SDS011;11499;49.486;11.104;2023-05-10T15:51:30;2.03;;;1.33;;
22665;SDS011;11499;49.486;11.104;2023-05-10T15:56:45;2.27;;;1.23;;
22665;SDS011;11499;49.486;11.104;2023-05-10T15:59:11;1.43;;;1.20;;
22665;SDS011;11499;49.486;11.104;2023-05-10T16:01:36;1.27;;;1.10;;
22665;SDS011;11499;49.486;11.104;2023-05-10T16:04:03;1.77;;;1.17;;
22665;SDS011;11499;49.486;11.104;2023-05-10T16:06:28;2.63;;;1.03;;
22665;SDS011;11499;49.486;11.104;2023-05-10T16:08:55;1.30;;;1.07;;
22665;SDS011;11499;49.486;11.104;2023-05-10T16:11:20;2.27;;;1.37;;
22665;SDS011;11499;49.486;11.104;2023-05-10T16:13:46;4.37;;;1.20;;
22665;SDS011;11499;49.486;11.104;2023-05-10T16:16:11;2.00;;;1.30;;
22665;SDS011;11499;49.486;11.104;2023-05-10T16:18:37;1.33;;;1.20;;
22665;SDS011;11499;49.486;11.104;2023-05-10T16:23:45;2.30;;;1.30;;
22665;SDS011;11499;49.486;11.104;2023-05-10T16:26:11;1.47;;;1.20;;
22665;SDS011;11499;49.486;11.104;2023-05-10T16:28:37;1.97;;;1.40;;
22665;SDS011;11499;49.486;11.104;2023-05-10T16:31:04;2.23;;;1.30;;
22665;SDS011;11499;49.486;11.104;2023-05-10T16:33:29;2.47;;;1.60;;